sensor_id;sensor_type;location;lat;lon;timestamp;P1;durP1;ratioP1;P2;durP2;ratioP2
60908;SDS011;46780;48.128;-1.704;2022-11-20T00:00:36;19.30;;;8.57;;
60908;SDS011;46780;48.128;-1.704;2022-11-20T00:03:04;20.60;;;8.43;;
60908;SDS011;46780;48.128;-1.704;2022-11-20T00:05:31;21.05;;;8.75;;
60908;SDS011;46780;48.128;-1.704;2022-11-20T00:07:58;20.33;;;8.43;;
60908;SDS011;46780;48.128;-1.704;2022-11-20T00:10:25;17.33;;;8.05;;
60908;SDS011;46780;48.128;-1.704;2022-11-20T00:12:51;25.02;;;8.40;;
60908;SDS011;46780;48.128;-1.704;2022-11-20T00:15:17;16.55;;;7.47;;
60908;SDS011;46780;48.128;-1.704;2022-11-20T00:17:44;18.25;;;7.60;;
60908;SDS011;46780;48.128;-1.704;2022-11-20T00:20:12;17.52;;;7.88;;
60908;SDS011;46780;48.128;-1.704;2022-11-20T00:22:39;16.27;;;7.32;;
60908;SDS011;46780;48.128;-1.704;2022-11-20T00:25:05;18.58;;;7.97;;
60908;SDS011;46780;48.128;-1.704;2022-11-20T00:27:32;20.23;;;8.02;;
60908;SDS011;46780;48.128;-1.704;2022-11-20T00:29:59;20.95;;;7.60;;
60908;SDS011;46780;48.128;-1.704;2022-11-20T00:32:25;22.05;;;8.00;;
60908;SDS011;46780;48.128;-1.704;2022-11-20T00:34:52;19.23;;;7.57;;
60908;SDS011;46780;48.128;-1.704;2022-11-20T00:37:19;19.73;;;7.68;;
60908;SDS011;46780;48.128;-1.704;2022-11-20T00:39:46;19.33;;;7.97;;
60908;SDS011;46780;48.128;-1.704;2022-11-20T00:42:13;19.17;;;7.75;;
60908;SDS011;46780;48.128;-1.704;2022-11-20T00:44:39;18.60;;;7.45;;
60908;SDS011;46780;48.128;-1.704;2022-11-20T00:47:05;21.67;;;7.47;;
60908;SDS011;46780;48.128;-1.704;2022-11-20T00:49:32;22.52;;;7.60;;
60908;SDS011;46780;48.128;-1.704;2022-11-20T00:51:58;22.90;;;7.40;;
60908;SDS011;46780;48.128;-1.704;2022-11-20T00:54:26;21.35;;;7.95;;
60908;SDS011;46780;48.128;-1.704;2022-11-20T00:56:53;19.13;;;7.15;;
60908;SDS011;46780;48.128;-1.704;2022-11-20T00:59:19;18.55;;;7.43;;
60908;SDS011;46780;48.128;-1.704;2022-11-20T01:01:46;17.27;;;7.18;;
60908;SDS011;46780;48.128;-1.704;2022-11-20T01:04:12;16.35;;;7.40;;
60908;SDS011;46780;48.128;-1.704;2022-11-20T01:06:39;16.83;;;7.25;;
60908;SDS011;46780;48.128;-1.704;2022-11-20T01:09:06;19.75;;;7.28;;
60908;SDS011;46780;48.128;-1.704;2022-11-20T01:11:37;21.55;;;6.75;;
60908;SDS011;46780;48.128;-1.704;2022-11-20T01:14:05;16.60;;;6.63;;
60908;SDS011;46780;48.128;-1.704;2022-11-20T01:16:36;17.45;;;6.13;;
60908;SDS011;46780;48.128;-1.704;2022-11-20T01:19:04;16.98;;;6.93;;
60908;SDS011;46780;48.128;-1.704;2022-11-20T01:21:33;18.08;;;6.43;;
60908;SDS011;46780;48.128;-1.704;2022-11-20T01:24:01;15.32;;;6.20;;
60908;SDS011;46780;48.128;-1.704;2022-11-20T01:26:28;13.00;;;6.07;;
60908;SDS011;46780;48.128;-1.704;2022-11-20T01:28:58;14.65;;;6.13;;
60908;SDS011;46780;48.128;-1.704;2022-11-20T01:31:26;14.93;;;6.32;;
60908;SDS011;46780;48.128;-1.704;2022-11-20T01:33:55;16.40;;;5.97;;
60908;SDS011;46780;48.128;-1.704;2022-11-20T01:36:23;18.23;;;6.65;;
60908;SDS011;46780;48.128;-1.704;2022-11-20T01:38:51;16.33;;;6.03;;
60908;SDS011;46780;48.128;-1.704;2022-11-20T01:41:18;16.80;;;5.55;;
60908;SDS011;46780;48.128;-1.704;2022-11-20T01:43:45;16.92;;;6.28;;
60908;SDS011;46780;48.128;-1.704;2022-11-20T01:46:15;15.52;;;5.35;;
60908;SDS011;46780;48.128;-1.704;2022-11-20T01:48:45;16.60;;;5.97;;
60908;SDS011;46780;48.128;-1.704;2022-11-20T01:51:19;16.27;;;5.72;;
60908;SDS011;46780;48.128;-1.704;2022-11-20T01:53:51;16.52;;;5.28;;
60908;SDS011;46780;48.128;-1.704;2022-11-20T01:56:20;16.20;;;5.93;;
60908;SDS011;46780;48.128;-1.704;2022-11-20T01:58:48;17.65;;;5.22;;
60908;SDS011;46780;48.128;-1.704;2022-11-20T02:01:18;14.87;;;5.13;;
60908;SDS011;46780;48.128;-1.704;2022-11-20T02:03:45;13.57;;;4.82;;
60908;SDS011;46780;48.128;-1.704;2022-11-20T02:06:15;14.25;;;5.10;;
60908;SDS011;46780;48.128;-1.704;2022-11-20T02:08:45;13.90;;;4.70;;
60908;SDS011;46780;48.128;-1.704;2022-11-20T02:11:11;13.43;;;4.43;;
60908;SDS011;46780;48.128;-1.704;2022-11-20T02:13:38;16.38;;;5.13;;
60908;SDS011;46780;48.128;-1.704;2022-11-20T02:16:05;15.88;;;5.07;;
60908;SDS011;46780;48.128;-1.704;2022-11-20T02:18:37;15.63;;;4.93;;
60908;SDS011;46780;48.128;-1.704;2022-11-20T02:21:06;15.27;;;5.18;;
60908;SDS011;46780;48.128;-1.704;2022-11-20T02:23:38;16.35;;;5.18;;
60908;SDS011;46780;48.128;-1.704;2022-11-20T02:26:12;15.98;;;5.05;;
60908;SDS011;46780;48.128;-1.704;2022-11-20T02:28:41;13.95;;;4.72;;
60908;SDS011;46780;48.128;-1.704;2022-11-20T02:31:07;13.80;;;4.70;;
60908;SDS011;46780;48.128;-1.704;2022-11-20T02:33:34;15.68;;;4.63;;
60908;SDS011;46780;48.128;-1.704;2022-11-20T02:36:00;13.93;;;4.68;;
60908;SDS011;46780;48.128;-1.704;2022-11-20T02:38:27;12.23;;;4.20;;
60908;SDS011;46780;48.128;-1.704;2022-11-20T02:40:53;10.55;;;3.95;;
60908;SDS011;46780;48.128;-1.704;2022-11-20T02:43:21;11.60;;;4.32;;
60908;SDS011;46780;48.128;-1.704;2022-11-20T02:45:48;16.15;;;4.68;;
60908;SDS011;46780;48.128;-1.704;2022-11-20T02:48:15;14.27;;;4.57;;
60908;SDS011;46780;48.128;-1.704;2022-11-20T02:50:41;15.10;;;4.43;;
60908;SDS011;46780;48.128;-1.704;2022-11-20T02:53:07;15.68;;;4.40;;
60908;SDS011;46780;48.128;-1.704;2022-11-20T02:55:34;13.90;;;4.32;;
60908;SDS011;46780;48.128;-1.704;2022-11-20T02:58:01;16.17;;;4.53;;
60908;SDS011;46780;48.128;-1.704;2022-11-20T03:00:29;19.08;;;4.38;;
60908;SDS011;46780;48.128;-1.704;2022-11-20T03:02:55;14.02;;;4.10;;
60908;SDS011;46780;48.128;-1.704;2022-11-20T03:05:22;16.35;;;4.60;;
60908;SDS011;46780;48.128;-1.704;2022-11-20T03:07:48;14.35;;;4.80;;
60908;SDS011;46780;48.128;-1.704;2022-11-20T03:10:15;11.88;;;4.05;;
60908;SDS011;46780;48.128;-1.704;2022-11-20T03:12:41;17.52;;;4.30;;
60908;SDS011;46780;48.128;-1.704;2022-11-20T03:15:08;16.17;;;4.75;;
60908;SDS011;46780;48.128;-1.704;2022-11-20T03:17:36;15.57;;;5.10;;
60908;SDS011;46780;48.128;-1.704;2022-11-20T03:20:03;14.82;;;4.82;;
60908;SDS011;46780;48.128;-1.704;2022-11-20T03:22:30;10.48;;;4.32;;
60908;SDS011;46780;48.128;-1.704;2022-11-20T03:24:57;13.98;;;4.93;;
60908;SDS011;46780;48.128;-1.704;2022-11-20T03:27:23;16.63;;;4.93;;
60908;SDS011;46780;48.128;-1.704;2022-11-20T03:29:50;15.02;;;4.88;;
60908;SDS011;46780;48.128;-1.704;2022-11-20T03:32:16;15.95;;;4.68;;
60908;SDS011;46780;48.128;-1.704;2022-11-20T03:34:44;14.77;;;5.25;;
60908;SDS011;46780;48.128;-1.704;2022-11-20T03:37:10;18.23;;;5.20;;
60908;SDS011;46780;48.128;-1.704;2022-11-20T03:39:37;15.82;;;4.93;;
60908;SDS011;46780;48.128;-1.704;2022-11-20T03:42:03;19.42;;;4.60;;
60908;SDS011;46780;48.128;-1.704;2022-11-20T03:44:30;15.93;;;5.57;;
60908;SDS011;46780;48.128;-1.704;2022-11-20T03:46:56;13.90;;;4.95;;
60908;SDS011;46780;48.128;-1.704;2022-11-20T03:49:23;16.35;;;4.50;;
60908;SDS011;46780;48.128;-1.704;2022-11-20T03:51:50;12.63;;;5.35;;
60908;SDS011;46780;48.128;-1.704;2022-11-20T03:54:17;17.63;;;5.22;;
60908;SDS011;46780;48.128;-1.704;2022-11-20T03:56:43;17.23;;;4.75;;
60908;SDS011;46780;48.128;-1.704;2022-11-20T03:59:10;18.42;;;5.32;;
60908;SDS011;46780;48.128;-1.704;2022-11-20T04:01:37;16.17;;;5.22;;
60908;SDS011;46780;48.128;-1.704;2022-11-20T04:04:05;15.02;;;5.70;;
60908;SDS011;46780;48.128;-1.704;2022-11-20T04:06:34;17.40;;;5.20;;
60908;SDS011;46780;48.128;-1.704;2022-11-20T04:09:05;16.50;;;5.30;;
60908;SDS011;46780;48.128;-1.704;2022-11-20T04:11:35;14.50;;;5.32;;
60908;SDS011;46780;48.128;-1.704;2022-11-20T04:14:11;15.38;;;5.45;;
60908;SDS011;46780;48.128;-1.704;2022-11-20T04:16:41;13.23;;;5.70;;
60908;SDS011;46780;48.128;-1.704;2022-11-20T04:19:12;23.00;;;6.10;;
60908;SDS011;46780;48.128;-1.704;2022-11-20T04:21:42;16.30;;;6.10;;
60908;SDS011;46780;48.128;-1.704;2022-11-20T04:24:12;20.35;;;6.38;;
60908;SDS011;46780;48.128;-1.704;2022-11-20T04:26:40;22.70;;;7.78;;
60908;SDS011;46780;48.128;-1.704;2022-11-20T04:29:09;17.88;;;7.00;;
60908;SDS011;46780;48.128;-1.704;2022-11-20T04:31:37;17.50;;;7.18;;
60908;SDS011;46780;48.128;-1.704;2022-11-20T04:34:04;17.15;;;7.00;;
60908;SDS011;46780;48.128;-1.704;2022-11-20T04:36:33;15.57;;;7.22;;
60908;SDS011;46780;48.128;-1.704;2022-11-20T04:39:01;14.80;;;7.60;;
60908;SDS011;46780;48.128;-1.704;2022-11-20T04:41:31;15.85;;;7.82;;
60908;SDS011;46780;48.128;-1.704;2022-11-20T04:43:59;17.98;;;7.88;;
60908;SDS011;46780;48.128;-1.704;2022-11-20T04:46:27;18.75;;;8.32;;
60908;SDS011;46780;48.128;-1.704;2022-11-20T04:48:55;20.40;;;8.75;;
60908;SDS011;46780;48.128;-1.704;2022-11-20T04:51:22;16.15;;;8.80;;
60908;SDS011;46780;48.128;-1.704;2022-11-20T04:53:49;20.48;;;9.00;;
60908;SDS011;46780;48.128;-1.704;2022-11-20T04:56:16;20.05;;;9.13;;
60908;SDS011;46780;48.128;-1.704;2022-11-20T04:58:44;18.40;;;9.27;;
60908;SDS011;46780;48.128;-1.704;2022-11-20T05:01:12;20.25;;;8.52;;
60908;SDS011;46780;48.128;-1.704;2022-11-20T05:03:40;21.10;;;8.02;;
60908;SDS011;46780;48.128;-1.704;2022-11-20T05:06:08;25.80;;;9.00;;
60908;SDS011;46780;48.128;-1.704;2022-11-20T05:08:36;20.38;;;9.38;;
60908;SDS011;46780;48.128;-1.704;2022-11-20T05:11:03;20.27;;;8.80;;
60908;SDS011;46780;48.128;-1.704;2022-11-20T05:13:31;22.83;;;9.07;;
60908;SDS011;46780;48.128;-1.704;2022-11-20T05:16:02;22.45;;;9.15;;
60908;SDS011;46780;48.128;-1.704;2022-11-20T05:18:29;19.42;;;9.10;;
60908;SDS011;46780;48.128;-1.704;2022-11-20T05:20:56;21.45;;;9.45;;
60908;SDS011;46780;48.128;-1.704;2022-11-20T05:23:23;20.00;;;9.65;;
60908;SDS011;46780;48.128;-1.704;2022-11-20T05:25:51;26.27;;;10.60;;
60908;SDS011;46780;48.128;-1.704;2022-11-20T05:28:18;21.42;;;9.75;;
60908;SDS011;46780;48.128;-1.704;2022-11-20T05:30:45;30.10;;;11.02;;
60908;SDS011;46780;48.128;-1.704;2022-11-20T05:33:13;24.20;;;10.18;;
60908;SDS011;46780;48.128;-1.704;2022-11-20T05:35:40;25.50;;;11.15;;
60908;SDS011;46780;48.128;-1.704;2022-11-20T05:38:06;22.80;;;10.73;;
60908;SDS011;46780;48.128;-1.704;2022-11-20T05:40:33;23.98;;;11.23;;
60908;SDS011;46780;48.128;-1.704;2022-11-20T05:42:59;22.92;;;10.85;;
60908;SDS011;46780;48.128;-1.704;2022-11-20T05:45:26;23.95;;;11.15;;
60908;SDS011;46780;48.128;-1.704;2022-11-20T05:47:53;27.67;;;11.82;;
60908;SDS011;46780;48.128;-1.704;2022-11-20T05:50:20;25.10;;;11.80;;
60908;SDS011;46780;48.128;-1.704;2022-11-20T05:52:47;25.02;;;10.65;;
60908;SDS011;46780;48.128;-1.704;2022-11-20T05:55:13;24.77;;;11.07;;
60908;SDS011;46780;48.128;-1.704;2022-11-20T05:57:40;23.50;;;10.20;;
60908;SDS011;46780;48.128;-1.704;2022-11-20T06:00:07;20.85;;;10.60;;
60908;SDS011;46780;48.128;-1.704;2022-11-20T06:02:34;20.45;;;10.80;;
60908;SDS011;46780;48.128;-1.704;2022-11-20T06:05:01;25.23;;;10.90;;
60908;SDS011;46780;48.128;-1.704;2022-11-20T06:07:29;18.17;;;9.07;;
60908;SDS011;46780;48.128;-1.704;2022-11-20T06:09:57;13.70;;;7.57;;
60908;SDS011;46780;48.128;-1.704;2022-11-20T06:12:23;10.18;;;6.13;;
60908;SDS011;46780;48.128;-1.704;2022-11-20T06:14:50;11.82;;;5.97;;
60908;SDS011;46780;48.128;-1.704;2022-11-20T06:17:16;9.75;;;5.10;;
60908;SDS011;46780;48.128;-1.704;2022-11-20T06:19:43;9.52;;;4.93;;
60908;SDS011;46780;48.128;-1.704;2022-11-20T06:22:09;9.40;;;4.45;;
60908;SDS011;46780;48.128;-1.704;2022-11-20T06:24:37;12.43;;;4.50;;
60908;SDS011;46780;48.128;-1.704;2022-11-20T06:27:03;8.25;;;4.35;;
60908;SDS011;46780;48.128;-1.704;2022-11-20T06:29:30;10.05;;;4.20;;
60908;SDS011;46780;48.128;-1.704;2022-11-20T06:31:56;10.43;;;4.88;;
60908;SDS011;46780;48.128;-1.704;2022-11-20T06:34:23;11.75;;;4.78;;
60908;SDS011;46780;48.128;-1.704;2022-11-20T06:36:49;10.15;;;4.45;;
60908;SDS011;46780;48.128;-1.704;2022-11-20T06:39:15;7.82;;;4.07;;
60908;SDS011;46780;48.128;-1.704;2022-11-20T06:41:43;8.63;;;3.90;;
60908;SDS011;46780;48.128;-1.704;2022-11-20T06:44:10;7.55;;;3.80;;
60908;SDS011;46780;48.128;-1.704;2022-11-20T06:46:36;10.35;;;4.43;;
60908;SDS011;46780;48.128;-1.704;2022-11-20T06:49:03;8.85;;;4.22;;
60908;SDS011;46780;48.128;-1.704;2022-11-20T06:51:29;8.68;;;4.00;;
60908;SDS011;46780;48.128;-1.704;2022-11-20T06:53:56;7.63;;;3.58;;
60908;SDS011;46780;48.128;-1.704;2022-11-20T06:56:22;7.32;;;3.50;;
60908;SDS011;46780;48.128;-1.704;2022-11-20T06:58:50;7.32;;;3.58;;
60908;SDS011;46780;48.128;-1.704;2022-11-20T07:01:17;10.45;;;3.92;;
60908;SDS011;46780;48.128;-1.704;2022-11-20T07:03:43;8.80;;;3.40;;
60908;SDS011;46780;48.128;-1.704;2022-11-20T07:06:10;7.80;;;3.50;;
60908;SDS011;46780;48.128;-1.704;2022-11-20T07:08:36;7.97;;;4.13;;
60908;SDS011;46780;48.128;-1.704;2022-11-20T07:11:04;7.72;;;3.40;;
60908;SDS011;46780;48.128;-1.704;2022-11-20T07:13:31;7.97;;;3.45;;
60908;SDS011;46780;48.128;-1.704;2022-11-20T07:16:00;7.10;;;3.22;;
60908;SDS011;46780;48.128;-1.704;2022-11-20T07:18:27;6.90;;;3.10;;
60908;SDS011;46780;48.128;-1.704;2022-11-20T07:20:54;8.90;;;3.10;;
60908;SDS011;46780;48.128;-1.704;2022-11-20T07:23:20;7.82;;;3.50;;
60908;SDS011;46780;48.128;-1.704;2022-11-20T07:25:47;11.68;;;3.50;;
60908;SDS011;46780;48.128;-1.704;2022-11-20T07:28:13;11.10;;;3.10;;
60908;SDS011;46780;48.128;-1.704;2022-11-20T07:30:40;7.95;;;3.70;;
60908;SDS011;46780;48.128;-1.704;2022-11-20T07:33:08;12.43;;;3.42;;
60908;SDS011;46780;48.128;-1.704;2022-11-20T07:35:34;8.38;;;3.00;;
60908;SDS011;46780;48.128;-1.704;2022-11-20T07:38:00;12.73;;;3.10;;
60908;SDS011;46780;48.128;-1.704;2022-11-20T07:40:27;10.00;;;3.15;;
60908;SDS011;46780;48.128;-1.704;2022-11-20T07:42:54;10.57;;;3.20;;
60908;SDS011;46780;48.128;-1.704;2022-11-20T07:45:21;12.60;;;3.00;;
60908;SDS011;46780;48.128;-1.704;2022-11-20T07:47:48;14.07;;;3.20;;
60908;SDS011;46780;48.128;-1.704;2022-11-20T07:50:17;9.70;;;2.85;;
60908;SDS011;46780;48.128;-1.704;2022-11-20T07:52:43;12.60;;;3.30;;
60908;SDS011;46780;48.128;-1.704;2022-11-20T07:55:10;12.05;;;2.92;;
60908;SDS011;46780;48.128;-1.704;2022-11-20T07:57:37;9.20;;;2.80;;
60908;SDS011;46780;48.128;-1.704;2022-11-20T08:00:04;9.70;;;3.03;;
60908;SDS011;46780;48.128;-1.704;2022-11-20T08:02:32;13.25;;;3.45;;
60908;SDS011;46780;48.128;-1.704;2022-11-20T08:04:58;12.50;;;3.53;;
60908;SDS011;46780;48.128;-1.704;2022-11-20T08:07:26;8.80;;;3.30;;
60908;SDS011;46780;48.128;-1.704;2022-11-20T08:09:52;10.90;;;3.58;;
60908;SDS011;46780;48.128;-1.704;2022-11-20T08:12:19;13.10;;;3.92;;
60908;SDS011;46780;48.128;-1.704;2022-11-20T08:14:46;15.00;;;4.13;;
60908;SDS011;46780;48.128;-1.704;2022-11-20T08:17:13;13.27;;;4.03;;
60908;SDS011;46780;48.128;-1.704;2022-11-20T08:19:39;14.05;;;4.22;;
60908;SDS011;46780;48.128;-1.704;2022-11-20T08:22:06;11.43;;;4.05;;
60908;SDS011;46780;48.128;-1.704;2022-11-20T08:24:34;17.48;;;4.30;;
60908;SDS011;46780;48.128;-1.704;2022-11-20T08:27:00;13.90;;;3.88;;
60908;SDS011;46780;48.128;-1.704;2022-11-20T08:29:27;23.98;;;5.15;;
60908;SDS011;46780;48.128;-1.704;2022-11-20T08:31:53;14.30;;;4.07;;
60908;SDS011;46780;48.128;-1.704;2022-11-20T08:34:19;19.27;;;4.07;;
60908;SDS011;46780;48.128;-1.704;2022-11-20T08:36:46;17.60;;;3.53;;
60908;SDS011;46780;48.128;-1.704;2022-11-20T08:39:12;15.57;;;3.30;;
60908;SDS011;46780;48.128;-1.704;2022-11-20T08:41:41;24.88;;;3.72;;
60908;SDS011;46780;48.128;-1.704;2022-11-20T08:44:07;19.60;;;3.72;;
60908;SDS011;46780;48.128;-1.704;2022-11-20T08:46:34;16.83;;;3.53;;
60908;SDS011;46780;48.128;-1.704;2022-11-20T08:49:02;23.30;;;3.97;;
60908;SDS011;46780;48.128;-1.704;2022-11-20T08:51:28;18.30;;;3.58;;
60908;SDS011;46780;48.128;-1.704;2022-11-20T08:53:55;26.80;;;3.88;;
60908;SDS011;46780;48.128;-1.704;2022-11-20T08:56:22;22.80;;;3.38;;
60908;SDS011;46780;48.128;-1.704;2022-11-20T08:58:51;27.73;;;4.40;;
60908;SDS011;46780;48.128;-1.704;2022-11-20T09:01:17;28.30;;;3.80;;
60908;SDS011;46780;48.128;-1.704;2022-11-20T09:03:44;27.05;;;4.10;;
60908;SDS011;46780;48.128;-1.704;2022-11-20T09:06:11;34.47;;;4.15;;
60908;SDS011;46780;48.128;-1.704;2022-11-20T09:08:38;36.00;;;5.22;;
60908;SDS011;46780;48.128;-1.704;2022-11-20T09:11:05;33.42;;;3.90;;
60908;SDS011;46780;48.128;-1.704;2022-11-20T09:13:32;29.33;;;4.32;;
60908;SDS011;46780;48.128;-1.704;2022-11-20T09:16:02;33.00;;;4.90;;
60908;SDS011;46780;48.128;-1.704;2022-11-20T09:18:30;34.92;;;5.03;;
60908;SDS011;46780;48.128;-1.704;2022-11-20T09:20:57;32.95;;;4.60;;
60908;SDS011;46780;48.128;-1.704;2022-11-20T09:23:24;36.78;;;5.18;;
60908;SDS011;46780;48.128;-1.704;2022-11-20T09:25:51;41.05;;;5.18;;
60908;SDS011;46780;48.128;-1.704;2022-11-20T09:28:18;39.08;;;5.50;;
60908;SDS011;46780;48.128;-1.704;2022-11-20T09:30:44;37.40;;;5.03;;
60908;SDS011;46780;48.128;-1.704;2022-11-20T09:33:12;44.03;;;5.07;;
60908;SDS011;46780;48.128;-1.704;2022-11-20T09:35:39;31.98;;;4.70;;
60908;SDS011;46780;48.128;-1.704;2022-11-20T09:38:05;38.13;;;5.30;;
60908;SDS011;46780;48.128;-1.704;2022-11-20T09:40:32;37.33;;;5.05;;
60908;SDS011;46780;48.128;-1.704;2022-11-20T09:43:01;45.35;;;5.45;;
60908;SDS011;46780;48.128;-1.704;2022-11-20T09:45:45;41.03;;;5.10;;
60908;SDS011;46780;48.128;-1.704;2022-11-20T09:48:29;39.17;;;5.25;;
60908;SDS011;46780;48.128;-1.704;2022-11-20T09:51:07;42.95;;;6.10;;
60908;SDS011;46780;48.128;-1.704;2022-11-20T09:53:45;38.25;;;6.43;;
60908;SDS011;46780;48.128;-1.704;2022-11-20T09:56:19;42.17;;;5.13;;
60908;SDS011;46780;48.128;-1.704;2022-11-20T09:58:47;39.50;;;5.28;;
60908;SDS011;46780;48.128;-1.704;2022-11-20T10:01:16;39.95;;;6.35;;
60908;SDS011;46780;48.128;-1.704;2022-11-20T10:03:49;44.78;;;6.00;;
60908;SDS011;46780;48.128;-1.704;2022-11-20T10:06:21;43.78;;;5.70;;
60908;SDS011;46780;48.128;-1.704;2022-11-20T10:08:55;44.53;;;5.70;;
60908;SDS011;46780;48.128;-1.704;2022-11-20T10:11:33;50.63;;;6.55;;
60908;SDS011;46780;48.128;-1.704;2022-11-20T10:14:13;47.10;;;6.00;;
60908;SDS011;46780;48.128;-1.704;2022-11-20T10:16:49;40.22;;;5.95;;
60908;SDS011;46780;48.128;-1.704;2022-11-20T10:19:31;47.60;;;6.22;;
60908;SDS011;46780;48.128;-1.704;2022-11-20T10:22:13;39.95;;;6.43;;
60908;SDS011;46780;48.128;-1.704;2022-11-20T10:24:52;41.97;;;6.00;;
60908;SDS011;46780;48.128;-1.704;2022-11-20T10:30:34;39.88;;;6.70;;
60908;SDS011;46780;48.128;-1.704;2022-11-20T10:33:06;40.78;;;5.43;;
60908;SDS011;46780;48.128;-1.704;2022-11-20T10:35:41;42.92;;;5.82;;
60908;SDS011;46780;48.128;-1.704;2022-11-20T10:38:12;48.92;;;6.70;;
60908;SDS011;46780;48.128;-1.704;2022-11-20T10:40:45;54.05;;;6.65;;
60908;SDS011;46780;48.128;-1.704;2022-11-20T10:43:15;38.63;;;5.05;;
60908;SDS011;46780;48.128;-1.704;2022-11-20T10:45:49;39.25;;;5.00;;
60908;SDS011;46780;48.128;-1.704;2022-11-20T10:48:22;38.03;;;5.50;;
60908;SDS011;46780;48.128;-1.704;2022-11-20T10:50:55;35.53;;;5.38;;
60908;SDS011;46780;48.128;-1.704;2022-11-20T10:53:42;34.67;;;5.22;;
60908;SDS011;46780;48.128;-1.704;2022-11-20T10:56:19;39.20;;;6.25;;
60908;SDS011;46780;48.128;-1.704;2022-11-20T10:58:52;48.78;;;6.28;;
60908;SDS011;46780;48.128;-1.704;2022-11-20T11:01:39;36.53;;;5.43;;
60908;SDS011;46780;48.128;-1.704;2022-11-20T11:04:07;44.95;;;5.80;;
60908;SDS011;46780;48.128;-1.704;2022-11-20T11:06:58;36.97;;;5.65;;
60908;SDS011;46780;48.128;-1.704;2022-11-20T11:09:33;41.15;;;5.20;;
60908;SDS011;46780;48.128;-1.704;2022-11-20T11:12:06;42.10;;;6.28;;
60908;SDS011;46780;48.128;-1.704;2022-11-20T11:14:41;43.10;;;5.43;;
60908;SDS011;46780;48.128;-1.704;2022-11-20T11:17:26;40.50;;;5.90;;
60908;SDS011;46780;48.128;-1.704;2022-11-20T11:20:00;49.28;;;6.28;;
60908;SDS011;46780;48.128;-1.704;2022-11-20T11:22:31;37.38;;;5.20;;
60908;SDS011;46780;48.128;-1.704;2022-11-20T11:24:59;43.22;;;6.45;;
60908;SDS011;46780;48.128;-1.704;2022-11-20T11:27:26;41.53;;;6.10;;
60908;SDS011;46780;48.128;-1.704;2022-11-20T11:30:01;33.78;;;5.22;;
60908;SDS011;46780;48.128;-1.704;2022-11-20T11:32:36;41.38;;;6.70;;
60908;SDS011;46780;48.128;-1.704;2022-11-20T11:35:04;35.42;;;5.28;;
60908;SDS011;46780;48.128;-1.704;2022-11-20T11:37:34;41.13;;;5.85;;
60908;SDS011;46780;48.128;-1.704;2022-11-20T11:40:02;41.70;;;6.30;;
60908;SDS011;46780;48.128;-1.704;2022-11-20T11:42:30;42.03;;;5.43;;
60908;SDS011;46780;48.128;-1.704;2022-11-20T11:44:57;30.13;;;5.07;;
60908;SDS011;46780;48.128;-1.704;2022-11-20T11:47:26;37.38;;;5.10;;
60908;SDS011;46780;48.128;-1.704;2022-11-20T11:52:48;34.83;;;5.00;;
60908;SDS011;46780;48.128;-1.704;2022-11-20T11:55:24;33.05;;;5.10;;
60908;SDS011;46780;48.128;-1.704;2022-11-20T11:57:55;29.05;;;4.30;;
60908;SDS011;46780;48.128;-1.704;2022-11-20T12:00:30;27.40;;;4.30;;
60908;SDS011;46780;48.128;-1.704;2022-11-20T12:03:00;22.38;;;4.18;;
60908;SDS011;46780;48.128;-1.704;2022-11-20T12:05:36;25.30;;;4.30;;
60908;SDS011;46780;48.128;-1.704;2022-11-20T12:08:10;27.13;;;4.32;;
60908;SDS011;46780;48.128;-1.704;2022-11-20T12:10:43;27.90;;;4.60;;
60908;SDS011;46780;48.128;-1.704;2022-11-20T12:13:17;25.42;;;4.30;;
60908;SDS011;46780;48.128;-1.704;2022-11-20T12:15:51;25.08;;;4.35;;
60908;SDS011;46780;48.128;-1.704;2022-11-20T12:18:19;28.13;;;4.43;;
60908;SDS011;46780;48.128;-1.704;2022-11-20T12:20:50;23.40;;;4.22;;
60908;SDS011;46780;48.128;-1.704;2022-11-20T12:23:30;24.60;;;4.03;;
60908;SDS011;46780;48.128;-1.704;2022-11-20T12:26:05;26.27;;;4.07;;
60908;SDS011;46780;48.128;-1.704;2022-11-20T12:28:42;30.20;;;4.57;;
60908;SDS011;46780;48.128;-1.704;2022-11-20T12:31:22;28.55;;;4.63;;
60908;SDS011;46780;48.128;-1.704;2022-11-20T12:37:07;27.17;;;4.13;;
60908;SDS011;46780;48.128;-1.704;2022-11-20T12:39:42;25.20;;;4.35;;
60908;SDS011;46780;48.128;-1.704;2022-11-20T12:42:23;25.83;;;4.43;;
60908;SDS011;46780;48.128;-1.704;2022-11-20T12:48:02;27.33;;;5.03;;
60908;SDS011;46780;48.128;-1.704;2022-11-20T12:50:59;27.70;;;4.18;;
60908;SDS011;46780;48.128;-1.704;2022-11-20T12:53:45;25.67;;;4.47;;
60908;SDS011;46780;48.128;-1.704;2022-11-20T12:56:24;30.95;;;4.93;;
60908;SDS011;46780;48.128;-1.704;2022-11-20T12:59:07;28.23;;;4.68;;
60908;SDS011;46780;48.128;-1.704;2022-11-20T13:01:50;34.15;;;4.88;;
60908;SDS011;46780;48.128;-1.704;2022-11-20T13:04:26;28.88;;;4.65;;
60908;SDS011;46780;48.128;-1.704;2022-11-20T13:07:08;36.63;;;5.13;;
60908;SDS011;46780;48.128;-1.704;2022-11-20T13:09:36;37.05;;;5.13;;
60908;SDS011;46780;48.128;-1.704;2022-11-20T13:12:08;35.20;;;5.07;;
60908;SDS011;46780;48.128;-1.704;2022-11-20T13:14:40;36.08;;;5.30;;
60908;SDS011;46780;48.128;-1.704;2022-11-20T13:17:11;34.00;;;5.10;;
60908;SDS011;46780;48.128;-1.704;2022-11-20T13:19:46;36.72;;;5.57;;
60908;SDS011;46780;48.128;-1.704;2022-11-20T13:22:23;28.48;;;4.40;;
60908;SDS011;46780;48.128;-1.704;2022-11-20T13:24:50;25.88;;;3.80;;
60908;SDS011;46780;48.128;-1.704;2022-11-20T13:27:19;24.73;;;3.63;;
60908;SDS011;46780;48.128;-1.704;2022-11-20T13:29:57;29.00;;;3.85;;
60908;SDS011;46780;48.128;-1.704;2022-11-20T13:32:26;27.63;;;4.18;;
60908;SDS011;46780;48.128;-1.704;2022-11-20T13:34:53;23.65;;;3.88;;
60908;SDS011;46780;48.128;-1.704;2022-11-20T13:37:25;26.45;;;3.63;;
60908;SDS011;46780;48.128;-1.704;2022-11-20T13:40:04;26.23;;;3.90;;
60908;SDS011;46780;48.128;-1.704;2022-11-20T13:42:54;23.17;;;3.65;;
60908;SDS011;46780;48.128;-1.704;2022-11-20T13:45:23;25.75;;;3.90;;
60908;SDS011;46780;48.128;-1.704;2022-11-20T13:47:52;27.13;;;4.35;;
60908;SDS011;46780;48.128;-1.704;2022-11-20T13:50:21;23.55;;;3.45;;
60908;SDS011;46780;48.128;-1.704;2022-11-20T13:53:07;26.50;;;3.65;;
60908;SDS011;46780;48.128;-1.704;2022-11-20T13:55:48;24.17;;;3.63;;
60908;SDS011;46780;48.128;-1.704;2022-11-20T13:58:24;28.52;;;3.90;;
60908;SDS011;46780;48.128;-1.704;2022-11-20T14:01:07;26.58;;;4.13;;
60908;SDS011;46780;48.128;-1.704;2022-11-20T14:03:35;27.38;;;3.97;;
60908;SDS011;46780;48.128;-1.704;2022-11-20T14:06:04;24.55;;;4.25;;
60908;SDS011;46780;48.128;-1.704;2022-11-20T14:08:37;23.95;;;3.60;;
60908;SDS011;46780;48.128;-1.704;2022-11-20T14:11:12;20.95;;;3.78;;
60908;SDS011;46780;48.128;-1.704;2022-11-20T14:13:51;28.67;;;3.97;;
60908;SDS011;46780;48.128;-1.704;2022-11-20T14:16:22;29.48;;;3.95;;
60908;SDS011;46780;48.128;-1.704;2022-11-20T14:18:50;25.98;;;3.90;;
60908;SDS011;46780;48.128;-1.704;2022-11-20T14:21:23;28.15;;;3.92;;
60908;SDS011;46780;48.128;-1.704;2022-11-20T14:24:02;22.80;;;3.78;;
60908;SDS011;46780;48.128;-1.704;2022-11-20T14:26:29;26.95;;;4.35;;
60908;SDS011;46780;48.128;-1.704;2022-11-20T14:28:57;26.15;;;4.07;;
60908;SDS011;46780;48.128;-1.704;2022-11-20T14:31:25;25.85;;;3.95;;
60908;SDS011;46780;48.128;-1.704;2022-11-20T14:33:53;30.40;;;4.85;;
60908;SDS011;46780;48.128;-1.704;2022-11-20T14:36:21;30.60;;;4.50;;
60908;SDS011;46780;48.128;-1.704;2022-11-20T14:38:50;26.73;;;4.07;;
60908;SDS011;46780;48.128;-1.704;2022-11-20T14:41:18;28.10;;;4.00;;
60908;SDS011;46780;48.128;-1.704;2022-11-20T14:43:46;31.83;;;4.28;;
60908;SDS011;46780;48.128;-1.704;2022-11-20T14:46:18;28.55;;;4.43;;